Iblea — IBFK — position and weather

sailwx.info

Track history (hours):
 
Tides and Currents Weather Stations Pressure Air Temp Water Temp Dewpoint Dewpoint Depression Visibility Wind Speed Wind Dir Waves Ship Positions

Iblea

Last reported at 2016-Feb-07 16:24 UTC. Time now 2016-Feb-10 17:45 UTC.
Position N 36°38' E 014°42'.

Length 176 m; draft 10.5 m.

Type: Ship (hazmat cat A). MMSI: 247087700.

Date/timePositionNaut miles runAvg speedWind from/ knotsBaromVisibWave heightAir tempDewpointWater temp
2016-Feb-07 16:24N 36°38' E 014°42'1112.9
2016-Feb-07 15:33N 36°40' E 014°29'1212.2
2016-Feb-07 14:33N 36°46' E 014°16'1211.8
2016-Feb-07 13:33N 36°52' E 014°02'1211.8
2016-Feb-07 12:33N 36°57' E 013°49'1211.9
2016-Feb-07 11:33N 37°03' E 013°36'25511.6
2016-Feb-06 13:32N 38°40' E 008°37'21411.6
2016-Feb-05 19:05N 39°43' E 004°14'712.0
2016-Feb-05 18:32N 39°45' E 004°06'1212.1
2016-Feb-05 17:33N 39°48' E 003°51'1212.3
2016-Feb-05 16:33N 39°54' E 003°36'1812.7
2016-Feb-05 15:06N 40°04' E 003°16'712.9
2016-Feb-05 14:33N 40°08' E 003°08'1312.7
2016-Feb-05 13:33N 40°15' E 002°55'1212.4
2016-Feb-05 12:33N 40°21' E 002°41'1312.6
2016-Feb-05 11:33N 40°28' E 002°27'1212.4
2016-Feb-05 10:33N 40°35' E 002°13'1212.2
2016-Feb-05 09:33N 40°41' E 001°59'1212.2
2016-Feb-05 08:33N 40°48' E 001°46'1212.3
2016-Feb-05 07:33N 40°55' E 001°32'11 0.4
2016-Feb-04 00:32N 41°00' E 001°20'1312.9
2016-Feb-03 23:33N 40°53' E 001°34'1413.7
2016-Feb-03 22:33N 40°46' E 001°49'1414.3
2016-Feb-03 21:33N 40°39' E 002°06'1414.2
2016-Feb-03 20:33N 40°31' E 002°21'1414.2
2016-Feb-03 19:33N 40°23' E 002°37'1414.4
2016-Feb-03 18:33N 40°15' E 002°53'1513.7
2016-Feb-03 17:28N 40°08' E 003°09'1713.6
2016-Feb-03 16:15N 39°59' E 003°28'1013.7
2016-Feb-03 15:33N 39°53' E 003°38'1413.7
2016-Feb-03 14:33N 39°48' E 003°55'22714.2
2016-Feb-02 22:30N 38°39' E 008°34'24313.5
2016-Feb-02 04:29N 36°42' E 013°03'1212.6
2016-Feb-02 03:33N 36°36' E 013°16'1212.4
2016-Feb-02 02:33N 36°31' E 013°30'1312.6
2016-Feb-02 01:33N 36°25' E 013°44'1212.2
2016-Feb-02 00:33N 36°19' E 013°57'1212.5
2016-Feb-01 23:33N 36°14' E 014°11'1212.3
2016-Feb-01 22:33N 36°07' E 014°24'1212.6
2016-Feb-01 21:34N 35°58' E 014°34'8 7.4
2016-Feb-01 20:29N 35°50' E 014°36'0 0.0
2016-Feb-01 19:32N 35°50' E 014°36'0 0.0
2016-Feb-01 18:33N 35°50' E 014°36'0 0.0
2016-Feb-01 17:32N 35°50' E 014°36'0 0.0
2016-Feb-01 16:33N 35°50' E 014°36'0 0.0
2016-Feb-01 15:33N 35°50' E 014°36'0 0.0
2016-Feb-01 14:26N 35°50' E 014°36'0 0.0
2016-Feb-01 13:33N 35°50' E 014°36'0 0.1
2016-Feb-01 12:33N 35°50' E 014°36'9 8.0
2016-Feb-01 11:27N 35°43' E 014°43'  
Track history (hours):
 
Tides and Currents Weather Stations Pressure Air Temp Water Temp Dewpoint Dewpoint Depression Visibility Wind Speed Wind Dir Waves Ship Positions

Iblea

Last reported at 2016-Feb-07 16:24 UTC. Time now 2016-Feb-10 17:45 UTC.
Position N 36°38' E 014°42'.

Length 176 m; draft 10.5 m.

Type: Ship (hazmat cat A). MMSI: 247087700.

Date/timePositionNaut miles runAvg speedWind from/ knotsBaromVisibWave heightAir tempDewpointWater temp
2016-Feb-07 16:24N 36°38' E 014°42'1112.9
2016-Feb-07 15:33N 36°40' E 014°29'1212.2
2016-Feb-07 14:33N 36°46' E 014°16'1211.8
2016-Feb-07 13:33N 36°52' E 014°02'1211.8
2016-Feb-07 12:33N 36°57' E 013°49'1211.9
2016-Feb-07 11:33N 37°03' E 013°36'25511.6
2016-Feb-06 13:32N 38°40' E 008°37'21411.6
2016-Feb-05 19:05N 39°43' E 004°14'712.0
2016-Feb-05 18:32N 39°45' E 004°06'1212.1
2016-Feb-05 17:33N 39°48' E 003°51'1212.3
2016-Feb-05 16:33N 39°54' E 003°36'1812.7
2016-Feb-05 15:06N 40°04' E 003°16'712.9
2016-Feb-05 14:33N 40°08' E 003°08'1312.7
2016-Feb-05 13:33N 40°15' E 002°55'1212.4
2016-Feb-05 12:33N 40°21' E 002°41'1312.6
2016-Feb-05 11:33N 40°28' E 002°27'1212.4
2016-Feb-05 10:33N 40°35' E 002°13'1212.2
2016-Feb-05 09:33N 40°41' E 001°59'1212.2
2016-Feb-05 08:33N 40°48' E 001°46'1212.3
2016-Feb-05 07:33N 40°55' E 001°32'11 0.4
2016-Feb-04 00:32N 41°00' E 001°20'1312.9
2016-Feb-03 23:33N 40°53' E 001°34'1413.7
2016-Feb-03 22:33N 40°46' E 001°49'1414.3
2016-Feb-03 21:33N 40°39' E 002°06'1414.2
2016-Feb-03 20:33N 40°31' E 002°21'1414.2
2016-Feb-03 19:33N 40°23' E 002°37'1414.4
2016-Feb-03 18:33N 40°15' E 002°53'1513.7
2016-Feb-03 17:28N 40°08' E 003°09'1713.6
2016-Feb-03 16:15N 39°59' E 003°28'1013.7
2016-Feb-03 15:33N 39°53' E 003°38'1413.7
2016-Feb-03 14:33N 39°48' E 003°55'22714.2
2016-Feb-02 22:30N 38°39' E 008°34'24313.5
2016-Feb-02 04:29N 36°42' E 013°03'1212.6
2016-Feb-02 03:33N 36°36' E 013°16'1212.4
2016-Feb-02 02:33N 36°31' E 013°30'1312.6
2016-Feb-02 01:33N 36°25' E 013°44'1212.2
2016-Feb-02 00:33N 36°19' E 013°57'1212.5
2016-Feb-01 23:33N 36°14' E 014°11'1212.3
2016-Feb-01 22:33N 36°07' E 014°24'1212.6
2016-Feb-01 21:34N 35°58' E 014°34'8 7.4
2016-Feb-01 20:29N 35°50' E 014°36'0 0.0
2016-Feb-01 19:32N 35°50' E 014°36'0 0.0
2016-Feb-01 18:33N 35°50' E 014°36'0 0.0
2016-Feb-01 17:32N 35°50' E 014°36'0 0.0
2016-Feb-01 16:33N 35°50' E 014°36'0 0.0
2016-Feb-01 15:33N 35°50' E 014°36'0 0.0
2016-Feb-01 14:26N 35°50' E 014°36'0 0.0
2016-Feb-01 13:33N 35°50' E 014°36'0 0.1
2016-Feb-01 12:33N 35°50' E 014°36'9 8.0
2016-Feb-01 11:27N 35°43' E 014°43'  

Dump ship's entire track history